sensor_id;sensor_type;location;lat;lon;timestamp;pressure;altitude;pressure_sealevel;temperature;humidity
37648;BME280;23490;53.656;10.076;2022-07-06T00:02:19;55768.41;;;-145.95;73.00
37648;BME280;23490;53.656;10.076;2022-07-06T00:04:45;55764.34;;;-145.95;72.82
37648;BME280;23490;53.656;10.076;2022-07-06T00:07:11;55782.69;;;-145.95;72.91
37648;BME280;23490;53.656;10.076;2022-07-06T00:09:36;55725.59;;;-145.95;73.22
37648;BME280;23490;53.656;10.076;2022-07-06T00:12:01;55784.72;;;-145.95;72.95
37648;BME280;23490;53.656;10.076;2022-07-06T00:14:27;55719.47;;;-145.95;73.07
37648;BME280;23490;53.656;10.076;2022-07-06T00:16:52;55784.72;;;-145.95;73.21
37648;BME280;23490;53.656;10.076;2022-07-06T00:19:17;55776.56;;;-145.95;73.58
37648;BME280;23490;53.656;10.076;2022-07-06T00:21:43;55756.19;;;-145.95;73.53
37648;BME280;23490;53.656;10.076;2022-07-06T00:24:08;55721.53;;;-145.95;73.73
37648;BME280;23490;53.656;10.076;2022-07-06T00:26:33;55737.84;;;-145.95;73.32
37648;BME280;23490;53.656;10.076;2022-07-06T00:28:59;55737.84;;;-145.95;73.33
37648;BME280;23490;53.656;10.076;2022-07-06T00:31:25;55750.06;;;-145.95;73.54
37648;BME280;23490;53.656;10.076;2022-07-06T00:33:50;55752.09;;;-145.95;73.42
37648;BME280;23490;53.656;10.076;2022-07-06T00:36:16;55752.09;;;-145.95;73.45
37648;BME280;23490;53.656;10.076;2022-07-06T00:38:41;55770.47;;;-145.95;73.58
37648;BME280;23490;53.656;10.076;2022-07-06T00:41:07;55752.09;;;-145.95;73.50
37648;BME280;23490;53.656;10.076;2022-07-06T00:46:14;55756.19;;;-145.95;73.47
37648;BME280;23490;53.656;10.076;2022-07-06T00:48:39;55705.22;;;-145.95;72.90
37648;BME280;23490;53.656;10.076;2022-07-06T00:51:04;55754.16;;;-145.95;72.60
37648;BME280;23490;53.656;10.076;2022-07-06T00:53:30;55735.78;;;-145.95;72.95
37648;BME280;23490;53.656;10.076;2022-07-06T00:55:55;55699.09;;;-145.95;73.73
37648;BME280;23490;53.656;10.076;2022-07-06T00:58:21;55772.50;;;-145.95;73.51
37648;BME280;23490;53.656;10.076;2022-07-06T01:00:46;55758.22;;;-145.95;73.69
37648;BME280;23490;53.656;10.076;2022-07-06T01:03:12;55752.09;;;-145.95;73.30
37648;BME280;23490;53.656;10.076;2022-07-06T01:05:37;55721.53;;;-145.95;73.50
37648;BME280;23490;53.656;10.076;2022-07-06T01:08:02;55764.34;;;-145.95;73.55
37648;BME280;23490;53.656;10.076;2022-07-06T01:10:28;55719.47;;;-145.95;73.83
37648;BME280;23490;53.656;10.076;2022-07-06T01:12:54;55752.09;;;-145.95;73.62
37648;BME280;23490;53.656;10.076;2022-07-06T01:15:23;55743.94;;;-145.95;73.15
37648;BME280;23490;53.656;10.076;2022-07-06T01:17:49;55760.25;;;-145.95;73.31
37648;BME280;23490;53.656;10.076;2022-07-06T01:20:19;55727.63;;;-145.95;73.42
37648;BME280;23490;53.656;10.076;2022-07-06T01:22:46;55715.41;;;-145.95;73.54
37648;BME280;23490;53.656;10.076;2022-07-06T01:25:12;55748.03;;;-145.95;73.34
37648;BME280;23490;53.656;10.076;2022-07-06T01:27:39;55743.94;;;-145.95;73.49
37648;BME280;23490;53.656;10.076;2022-07-06T01:30:09;55748.03;;;-145.95;73.38
37648;BME280;23490;53.656;10.076;2022-07-06T01:32:35;55727.63;;;-145.95;73.45
37648;BME280;23490;53.656;10.076;2022-07-06T01:35:01;55752.09;;;-145.95;73.17
37648;BME280;23490;53.656;10.076;2022-07-06T01:37:26;55733.75;;;-145.95;73.56
37648;BME280;23490;53.656;10.076;2022-07-06T01:39:52;55735.78;;;-145.95;73.47
37648;BME280;23490;53.656;10.076;2022-07-06T01:42:17;55729.69;;;-145.95;73.63
37648;BME280;23490;53.656;10.076;2022-07-06T01:44:44;55743.94;;;-145.95;73.88
37648;BME280;23490;53.656;10.076;2022-07-06T01:47:10;55713.38;;;-145.95;73.47
37648;BME280;23490;53.656;10.076;2022-07-06T01:49:35;55764.34;;;-145.95;73.45
37648;BME280;23490;53.656;10.076;2022-07-06T01:52:00;55715.41;;;-145.95;73.47
37648;BME280;23490;53.656;10.076;2022-07-06T01:54:26;55741.91;;;-145.95;73.50
37648;BME280;23490;53.656;10.076;2022-07-06T01:56:51;55760.25;;;-145.95;73.55
37648;BME280;23490;53.656;10.076;2022-07-06T01:59:16;55743.94;;;-145.95;73.16
37648;BME280;23490;53.656;10.076;2022-07-06T02:01:42;55737.84;;;-145.95;73.31
37648;BME280;23490;53.656;10.076;2022-07-06T02:04:07;55748.03;;;-145.95;73.29
37648;BME280;23490;53.656;10.076;2022-07-06T02:06:32;55752.09;;;-145.95;75.16
37648;BME280;23490;53.656;10.076;2022-07-06T02:08:58;55764.34;;;-145.95;78.95
37648;BME280;23490;53.656;10.076;2022-07-06T02:11:23;55768.41;;;-145.95;75.99
37648;BME280;23490;53.656;10.076;2022-07-06T02:13:48;55739.88;;;-145.95;77.84
37648;BME280;23490;53.656;10.076;2022-07-06T02:16:14;55792.88;;;-145.95;77.76
37648;BME280;23490;53.656;10.076;2022-07-06T02:18:39;55760.25;;;-145.95;79.84
37648;BME280;23490;53.656;10.076;2022-07-06T02:21:05;55719.47;;;-145.95;78.19
37648;BME280;23490;53.656;10.076;2022-07-06T02:23:30;55768.41;;;-145.95;77.12
37648;BME280;23490;53.656;10.076;2022-07-06T02:25:55;55760.25;;;-145.95;76.81
37648;BME280;23490;53.656;10.076;2022-07-06T02:28:21;55752.09;;;-145.95;78.52
37648;BME280;23490;53.656;10.076;2022-07-06T02:30:46;55731.72;;;-145.95;77.84
37648;BME280;23490;53.656;10.076;2022-07-06T02:33:12;55760.25;;;-145.95;78.33
37648;BME280;23490;53.656;10.076;2022-07-06T02:35:37;55792.88;;;-145.95;78.12
37648;BME280;23490;53.656;10.076;2022-07-06T02:38:07;55735.78;;;-145.95;80.53
37648;BME280;23490;53.656;10.076;2022-07-06T02:40:32;55768.41;;;-145.95;78.97
37648;BME280;23490;53.656;10.076;2022-07-06T02:42:58;55731.72;;;-145.95;78.95
37648;BME280;23490;53.656;10.076;2022-07-06T02:45:23;55768.41;;;-145.95;79.17
37648;BME280;23490;53.656;10.076;2022-07-06T02:47:48;55731.72;;;-145.95;78.97
37648;BME280;23490;53.656;10.076;2022-07-06T02:50:16;55748.03;;;-145.95;78.22
37648;BME280;23490;53.656;10.076;2022-07-06T02:52:41;55760.25;;;-145.95;79.49
37648;BME280;23490;53.656;10.076;2022-07-06T02:55:07;55760.25;;;-145.95;78.14
37648;BME280;23490;53.656;10.076;2022-07-06T02:57:32;55756.19;;;-145.95;77.79
37648;BME280;23490;53.656;10.076;2022-07-06T02:59:58;55776.56;;;-145.95;78.14
37648;BME280;23490;53.656;10.076;2022-07-06T03:02:23;55727.63;;;-145.95;77.06
37648;BME280;23490;53.656;10.076;2022-07-06T03:04:48;55748.03;;;-145.95;76.96
37648;BME280;23490;53.656;10.076;2022-07-06T03:07:14;55758.22;;;-145.95;76.52
37648;BME280;23490;53.656;10.076;2022-07-06T03:09:40;55770.47;;;-145.95;77.09
37648;BME280;23490;53.656;10.076;2022-07-06T03:12:05;55772.50;;;-145.95;76.93
37648;BME280;23490;53.656;10.076;2022-07-06T03:14:31;55768.41;;;-145.95;76.57
37648;BME280;23490;53.656;10.076;2022-07-06T03:16:56;55739.88;;;-145.95;75.82
37648;BME280;23490;53.656;10.076;2022-07-06T03:19:21;55727.63;;;-145.95;77.28
37648;BME280;23490;53.656;10.076;2022-07-06T03:21:47;55729.69;;;-145.95;76.65
37648;BME280;23490;53.656;10.076;2022-07-06T03:24:12;55717.44;;;-145.95;76.31
37648;BME280;23490;53.656;10.076;2022-07-06T03:26:38;55768.41;;;-145.95;75.53
37648;BME280;23490;53.656;10.076;2022-07-06T03:29:03;55760.25;;;-145.95;75.71
37648;BME280;23490;53.656;10.076;2022-07-06T03:31:28;55760.25;;;-145.95;75.81
37648;BME280;23490;53.656;10.076;2022-07-06T03:33:54;55709.28;;;-145.95;75.96
37648;BME280;23490;53.656;10.076;2022-07-06T03:36:19;55750.06;;;-145.95;75.49
37648;BME280;23490;53.656;10.076;2022-07-06T03:38:44;55748.03;;;-145.95;75.53
37648;BME280;23490;53.656;10.076;2022-07-06T03:41:10;55743.94;;;-145.95;75.35
37648;BME280;23490;53.656;10.076;2022-07-06T03:43:35;55725.59;;;-145.95;74.92
37648;BME280;23490;53.656;10.076;2022-07-06T03:46:00;55801.03;;;-145.95;74.83
37648;BME280;23490;53.656;10.076;2022-07-06T03:48:26;55741.91;;;-145.95;74.86
37648;BME280;23490;53.656;10.076;2022-07-06T03:50:52;55723.56;;;-145.95;75.50
37648;BME280;23490;53.656;10.076;2022-07-06T03:53:18;55756.19;;;-145.95;75.23
37648;BME280;23490;53.656;10.076;2022-07-06T03:55:43;55768.41;;;-145.95;75.10
37648;BME280;23490;53.656;10.076;2022-07-06T03:58:28;55766.38;;;-145.95;75.06
37648;BME280;23490;53.656;10.076;2022-07-06T04:00:54;55727.63;;;-145.95;76.01
37648;BME280;23490;53.656;10.076;2022-07-06T04:03:19;55750.06;;;-145.95;76.18
37648;BME280;23490;53.656;10.076;2022-07-06T04:05:44;55758.22;;;-145.95;76.52
37648;BME280;23490;53.656;10.076;2022-07-06T04:08:10;55770.47;;;-145.95;77.95
37648;BME280;23490;53.656;10.076;2022-07-06T04:10:35;55735.78;;;-145.95;80.04
37648;BME280;23490;53.656;10.076;2022-07-06T04:13:00;55754.16;;;-145.95;81.23
37648;BME280;23490;53.656;10.076;2022-07-06T04:15:26;55776.56;;;-145.95;84.42
37648;BME280;23490;53.656;10.076;2022-07-06T04:17:51;55735.78;;;-145.95;84.10
37648;BME280;23490;53.656;10.076;2022-07-06T04:20:20;55723.56;;;-145.95;86.04
37648;BME280;23490;53.656;10.076;2022-07-06T04:22:46;55786.78;;;-145.95;86.33
37648;BME280;23490;53.656;10.076;2022-07-06T04:25:12;55748.03;;;-145.95;89.01
37648;BME280;23490;53.656;10.076;2022-07-06T04:27:37;55752.09;;;-145.95;87.97
37648;BME280;23490;53.656;10.076;2022-07-06T04:30:04;55758.22;;;-145.95;87.38
37648;BME280;23490;53.656;10.076;2022-07-06T04:32:29;55756.19;;;-145.95;87.75
37648;BME280;23490;53.656;10.076;2022-07-06T04:34:54;55686.84;;;-145.95;87.21
37648;BME280;23490;53.656;10.076;2022-07-06T04:37:20;55723.56;;;-145.95;88.24
37648;BME280;23490;53.656;10.076;2022-07-06T04:39:45;55770.47;;;-145.95;89.21
37648;BME280;23490;53.656;10.076;2022-07-06T04:42:10;55762.31;;;-145.95;87.26
37648;BME280;23490;53.656;10.076;2022-07-06T04:44:36;55760.25;;;-145.95;88.48
37648;BME280;23490;53.656;10.076;2022-07-06T04:47:01;55752.09;;;-145.95;87.89
37648;BME280;23490;53.656;10.076;2022-07-06T04:49:26;55776.56;;;-145.95;87.80
37648;BME280;23490;53.656;10.076;2022-07-06T04:51:52;55739.88;;;-145.95;86.15
37648;BME280;23490;53.656;10.076;2022-07-06T04:54:17;55719.47;;;-145.95;86.63
37648;BME280;23490;53.656;10.076;2022-07-06T04:56:42;55768.41;;;-145.95;86.30
37648;BME280;23490;53.656;10.076;2022-07-06T04:59:07;55768.41;;;-145.95;85.45
37648;BME280;23490;53.656;10.076;2022-07-06T05:01:33;55697.06;;;-145.95;86.40
37648;BME280;23490;53.656;10.076;2022-07-06T05:03:59;55784.72;;;-145.95;86.95
37648;BME280;23490;53.656;10.076;2022-07-06T05:06:24;55737.84;;;-145.95;86.30
37648;BME280;23490;53.656;10.076;2022-07-06T05:08:49;55735.78;;;-145.95;86.02
37648;BME280;23490;53.656;10.076;2022-07-06T05:11:15;55756.19;;;-145.95;86.61
37648;BME280;23490;53.656;10.076;2022-07-06T05:13:40;55766.38;;;-145.95;87.43
37648;BME280;23490;53.656;10.076;2022-07-06T05:16:05;55801.03;;;-145.95;87.06
37648;BME280;23490;53.656;10.076;2022-07-06T05:18:31;55756.19;;;-145.95;88.24
37648;BME280;23490;53.656;10.076;2022-07-06T05:20:56;55768.41;;;-145.95;89.45
37648;BME280;23490;53.656;10.076;2022-07-06T05:23:21;55760.25;;;-145.95;89.62
37648;BME280;23490;53.656;10.076;2022-07-06T05:25:47;55748.03;;;-145.95;87.75
37648;BME280;23490;53.656;10.076;2022-07-06T05:28:12;55776.56;;;-145.95;86.70
37648;BME280;23490;53.656;10.076;2022-07-06T05:30:38;55750.06;;;-145.95;86.67
37648;BME280;23490;53.656;10.076;2022-07-06T05:33:03;55778.63;;;-145.95;85.83
37648;BME280;23490;53.656;10.076;2022-07-06T05:35:28;55774.53;;;-145.95;86.38
37648;BME280;23490;53.656;10.076;2022-07-06T05:37:54;55748.03;;;-145.95;86.48
37648;BME280;23490;53.656;10.076;2022-07-06T05:40:19;55768.41;;;-145.95;86.08
37648;BME280;23490;53.656;10.076;2022-07-06T05:42:44;55764.34;;;-145.95;86.30
37648;BME280;23490;53.656;10.076;2022-07-06T05:45:10;55756.19;;;-145.95;85.70
37648;BME280;23490;53.656;10.076;2022-07-06T05:47:35;55758.22;;;-145.95;85.23
37648;BME280;23490;53.656;10.076;2022-07-06T05:50:19;55782.69;;;-145.95;85.81
37648;BME280;23490;53.656;10.076;2022-07-06T05:52:55;55788.81;;;-145.95;86.48
37648;BME280;23490;53.656;10.076;2022-07-06T05:55:21;55780.66;;;-145.95;86.18
37648;BME280;23490;53.656;10.076;2022-07-06T05:57:46;55731.72;;;-145.95;85.94
37648;BME280;23490;53.656;10.076;2022-07-06T06:00:12;55772.50;;;-145.95;86.91
37648;BME280;23490;53.656;10.076;2022-07-06T06:02:41;55768.41;;;-145.95;85.56
37648;BME280;23490;53.656;10.076;2022-07-06T06:05:08;55764.34;;;-145.95;85.42
37648;BME280;23490;53.656;10.076;2022-07-06T06:07:37;55772.50;;;-145.95;85.38
37648;BME280;23490;53.656;10.076;2022-07-06T06:10:11;55780.66;;;-145.95;85.50
37648;BME280;23490;53.656;10.076;2022-07-06T06:12:38;55792.88;;;-145.95;85.85
37648;BME280;23490;53.656;10.076;2022-07-06T06:15:04;55813.28;;;-145.95;83.96
37648;BME280;23490;53.656;10.076;2022-07-06T06:17:30;55778.63;;;-145.95;84.47
37648;BME280;23490;53.656;10.076;2022-07-06T06:19:57;55780.66;;;-145.95;84.16
37648;BME280;23490;53.656;10.076;2022-07-06T06:22:22;55768.41;;;-145.95;82.46
37648;BME280;23490;53.656;10.076;2022-07-06T06:24:47;55756.19;;;-145.95;82.29
37648;BME280;23490;53.656;10.076;2022-07-06T06:27:13;55776.56;;;-145.95;82.20
37648;BME280;23490;53.656;10.076;2022-07-06T06:29:39;55760.25;;;-145.95;83.14
37648;BME280;23490;53.656;10.076;2022-07-06T06:32:04;55805.13;;;-145.95;81.16
37648;BME280;23490;53.656;10.076;2022-07-06T06:34:31;55780.66;;;-145.95;80.70
37648;BME280;23490;53.656;10.076;2022-07-06T06:36:57;55735.78;;;-145.95;80.56
37648;BME280;23490;53.656;10.076;2022-07-06T06:39:22;55821.44;;;-145.95;79.62
37648;BME280;23490;53.656;10.076;2022-07-06T06:41:48;55752.09;;;-145.95;81.63
37648;BME280;23490;53.656;10.076;2022-07-06T06:44:16;55756.19;;;-145.95;81.19
37648;BME280;23490;53.656;10.076;2022-07-06T06:46:43;55760.25;;;-145.95;81.88
37648;BME280;23490;53.656;10.076;2022-07-06T06:49:08;55760.25;;;-145.95;81.45
37648;BME280;23490;53.656;10.076;2022-07-06T06:51:35;55805.13;;;-145.95;79.55
37648;BME280;23490;53.656;10.076;2022-07-06T06:54:00;55776.56;;;-145.95;80.79
37648;BME280;23490;53.656;10.076;2022-07-06T06:56:26;55776.56;;;-145.95;79.56
37648;BME280;23490;53.656;10.076;2022-07-06T06:58:51;55792.88;;;-145.95;79.57
37648;BME280;23490;53.656;10.076;2022-07-06T07:01:17;55772.50;;;-145.95;77.34
37648;BME280;23490;53.656;10.076;2022-07-06T07:03:42;55788.81;;;-145.95;78.63
37648;BME280;23490;53.656;10.076;2022-07-06T07:06:07;55756.19;;;-145.95;76.54
37648;BME280;23490;53.656;10.076;2022-07-06T07:08:33;55760.25;;;-145.95;76.13
37648;BME280;23490;53.656;10.076;2022-07-06T07:10:58;55813.28;;;-145.95;76.77
37648;BME280;23490;53.656;10.076;2022-07-06T07:13:24;55801.03;;;-145.95;76.51
37648;BME280;23490;53.656;10.076;2022-07-06T07:15:49;55784.72;;;-145.95;76.80
37648;BME280;23490;53.656;10.076;2022-07-06T07:18:14;55776.56;;;-145.95;77.17
37648;BME280;23490;53.656;10.076;2022-07-06T07:20:40;55764.34;;;-145.95;78.60
37648;BME280;23490;53.656;10.076;2022-07-06T07:23:05;55784.72;;;-145.95;79.45
37648;BME280;23490;53.656;10.076;2022-07-06T07:25:30;55748.03;;;-145.95;80.43
37648;BME280;23490;53.656;10.076;2022-07-06T07:27:56;55760.25;;;-145.95;77.78
37648;BME280;23490;53.656;10.076;2022-07-06T07:30:21;55776.56;;;-145.95;78.08
37648;BME280;23490;53.656;10.076;2022-07-06T07:32:46;55780.66;;;-145.95;79.47
37648;BME280;23490;53.656;10.076;2022-07-06T07:35:12;55768.41;;;-145.95;78.71
37648;BME280;23490;53.656;10.076;2022-07-06T07:37:37;55756.19;;;-145.95;79.52
37648;BME280;23490;53.656;10.076;2022-07-06T07:40:04;55803.09;;;-145.95;78.72
37648;BME280;23490;53.656;10.076;2022-07-06T07:42:29;55790.84;;;-145.95;75.51
37648;BME280;23490;53.656;10.076;2022-07-06T07:44:55;55796.97;;;-145.95;74.52
37648;BME280;23490;53.656;10.076;2022-07-06T07:47:20;55756.19;;;-145.95;76.57
37648;BME280;23490;53.656;10.076;2022-07-06T07:49:46;55770.47;;;-145.95;73.63
37648;BME280;23490;53.656;10.076;2022-07-06T07:52:11;55752.09;;;-145.95;72.47
37648;BME280;23490;53.656;10.076;2022-07-06T07:54:37;55780.66;;;-145.95;72.75
37648;BME280;23490;53.656;10.076;2022-07-06T07:57:02;55807.16;;;-145.95;72.33
37648;BME280;23490;53.656;10.076;2022-07-06T07:59:28;55827.56;;;-145.95;72.01
37648;BME280;23490;53.656;10.076;2022-07-06T08:01:53;55792.88;;;-145.95;71.83
37648;BME280;23490;53.656;10.076;2022-07-06T08:04:19;55801.03;;;-145.95;71.63
37648;BME280;23490;53.656;10.076;2022-07-06T08:06:45;55803.09;;;-145.95;71.74
37648;BME280;23490;53.656;10.076;2022-07-06T08:09:10;55743.94;;;-145.95;70.71
37648;BME280;23490;53.656;10.076;2022-07-06T08:11:35;55760.25;;;-145.95;71.19
37648;BME280;23490;53.656;10.076;2022-07-06T08:14:02;55809.19;;;-145.95;68.63
37648;BME280;23490;53.656;10.076;2022-07-06T08:16:27;55760.25;;;-145.95;67.49
37648;BME280;23490;53.656;10.076;2022-07-06T08:18:53;55788.81;;;-145.95;68.09
37648;BME280;23490;53.656;10.076;2022-07-06T08:21:18;55796.97;;;-145.95;65.75
37648;BME280;23490;53.656;10.076;2022-07-06T08:23:43;55796.97;;;-145.95;64.74
37648;BME280;23490;53.656;10.076;2022-07-06T08:26:09;55756.19;;;-145.95;62.48
37648;BME280;23490;53.656;10.076;2022-07-06T08:28:34;55809.19;;;-145.95;63.38
37648;BME280;23490;53.656;10.076;2022-07-06T08:30:59;55805.13;;;-145.95;65.43
37648;BME280;23490;53.656;10.076;2022-07-06T08:33:25;55821.44;;;-145.95;65.11
37648;BME280;23490;53.656;10.076;2022-07-06T08:35:50;55801.03;;;-145.95;65.89
37648;BME280;23490;53.656;10.076;2022-07-06T08:38:16;55792.88;;;-145.95;64.71
37648;BME280;23490;53.656;10.076;2022-07-06T08:40:43;55813.28;;;-145.95;63.05
37648;BME280;23490;53.656;10.076;2022-07-06T08:43:10;55813.28;;;-145.95;61.93
37648;BME280;23490;53.656;10.076;2022-07-06T08:45:35;55774.53;;;-145.95;62.63
37648;BME280;23490;53.656;10.076;2022-07-06T08:48:06;55788.81;;;-145.95;64.57
37648;BME280;23490;53.656;10.076;2022-07-06T08:50:33;55792.88;;;-145.95;65.46
37648;BME280;23490;53.656;10.076;2022-07-06T08:52:58;55752.09;;;-145.95;67.56
37648;BME280;23490;53.656;10.076;2022-07-06T08:55:27;55784.72;;;-145.95;74.28
37648;BME280;23490;53.656;10.076;2022-07-06T08:57:55;55821.44;;;-145.95;77.84
37648;BME280;23490;53.656;10.076;2022-07-06T09:00:21;55784.72;;;-145.95;78.87
37648;BME280;23490;53.656;10.076;2022-07-06T09:02:48;55805.13;;;-145.95;80.58
37648;BME280;23490;53.656;10.076;2022-07-06T09:05:16;55762.31;;;-145.95;82.36
37648;BME280;23490;53.656;10.076;2022-07-06T09:07:45;55772.50;;;-145.95;79.03
37648;BME280;23490;53.656;10.076;2022-07-06T09:10:13;55756.19;;;-145.95;76.34
37648;BME280;23490;53.656;10.076;2022-07-06T09:12:38;55776.56;;;-145.95;77.52
37648;BME280;23490;53.656;10.076;2022-07-06T09:15:04;55764.34;;;-145.95;77.54
37648;BME280;23490;53.656;10.076;2022-07-06T09:17:30;55829.59;;;-145.95;77.04
37648;BME280;23490;53.656;10.076;2022-07-06T09:19:56;55792.88;;;-145.95;75.78
37648;BME280;23490;53.656;10.076;2022-07-06T09:22:31;55821.44;;;-145.95;74.74
37648;BME280;23490;53.656;10.076;2022-07-06T09:25:13;55858.16;;;-145.95;74.14
37648;BME280;23490;53.656;10.076;2022-07-06T09:27:40;55801.03;;;-145.95;74.64
37648;BME280;23490;53.656;10.076;2022-07-06T09:30:10;55801.03;;;-145.95;72.70
37648;BME280;23490;53.656;10.076;2022-07-06T09:32:44;55743.94;;;-145.95;74.96
37648;BME280;23490;53.656;10.076;2022-07-06T09:35:24;55845.91;;;-145.95;70.11
37648;BME280;23490;53.656;10.076;2022-07-06T09:38:11;55801.03;;;-145.95;69.50
37648;BME280;23490;53.656;10.076;2022-07-06T09:40:38;55788.81;;;-145.95;65.59
37648;BME280;23490;53.656;10.076;2022-07-06T09:43:34;55817.34;;;-145.95;61.46
37648;BME280;23490;53.656;10.076;2022-07-06T09:46:05;55845.91;;;-145.95;61.75
37648;BME280;23490;53.656;10.076;2022-07-06T09:48:31;55819.41;;;-145.95;61.97
37648;BME280;23490;53.656;10.076;2022-07-06T09:50:58;55809.19;;;-145.95;58.52
37648;BME280;23490;53.656;10.076;2022-07-06T09:53:26;55831.63;;;-145.95;58.44
37648;BME280;23490;53.656;10.076;2022-07-06T09:55:56;55837.75;;;-145.95;58.52
37648;BME280;23490;53.656;10.076;2022-07-06T09:58:23;55796.97;;;-145.95;56.16
37648;BME280;23490;53.656;10.076;2022-07-06T10:00:49;55790.84;;;-145.95;55.91
37648;BME280;23490;53.656;10.076;2022-07-06T10:03:17;55850.00;;;-145.95;59.70
37648;BME280;23490;53.656;10.076;2022-07-06T10:05:44;55817.34;;;-145.95;60.42
37648;BME280;23490;53.656;10.076;2022-07-06T10:08:13;55823.47;;;-145.95;62.18
37648;BME280;23490;53.656;10.076;2022-07-06T10:10:40;55803.09;;;-145.95;62.53
37648;BME280;23490;53.656;10.076;2022-07-06T10:13:09;55792.88;;;-145.95;62.28
37648;BME280;23490;53.656;10.076;2022-07-06T10:15:39;55796.97;;;-145.95;62.25
37648;BME280;23490;53.656;10.076;2022-07-06T10:18:07;55813.28;;;-145.95;60.87
37648;BME280;23490;53.656;10.076;2022-07-06T10:20:35;55770.47;;;-145.95;60.88
37648;BME280;23490;53.656;10.076;2022-07-06T10:23:03;55833.66;;;-145.95;59.80
37648;BME280;23490;53.656;10.076;2022-07-06T10:25:29;55796.97;;;-145.95;59.61
37648;BME280;23490;53.656;10.076;2022-07-06T10:27:56;55784.72;;;-145.95;60.12
37648;BME280;23490;53.656;10.076;2022-07-06T10:30:26;55772.50;;;-145.95;59.95
37648;BME280;23490;53.656;10.076;2022-07-06T10:32:54;55768.41;;;-145.95;58.32
37648;BME280;23490;53.656;10.076;2022-07-06T10:35:21;55786.78;;;-145.95;58.39
37648;BME280;23490;53.656;10.076;2022-07-06T10:38:06;55756.19;;;-145.95;59.23
37648;BME280;23490;53.656;10.076;2022-07-06T10:40:39;55790.84;;;-145.95;59.34
37648;BME280;23490;53.656;10.076;2022-07-06T10:43:38;55760.25;;;-145.95;61.15
37648;BME280;23490;53.656;10.076;2022-07-06T10:46:16;55760.25;;;-145.95;59.70
37648;BME280;23490;53.656;10.076;2022-07-06T10:48:46;55778.63;;;-145.95;59.76
37648;BME280;23490;53.656;10.076;2022-07-06T10:51:38;55805.13;;;-145.95;59.74
37648;BME280;23490;53.656;10.076;2022-07-06T10:54:05;55770.47;;;-145.95;58.86
37648;BME280;23490;53.656;10.076;2022-07-06T10:56:43;55792.88;;;-145.95;59.73
37648;BME280;23490;53.656;10.076;2022-07-06T11:01:36;55790.84;;;-145.95;59.34
37648;BME280;23490;53.656;10.076;2022-07-06T11:06:31;55803.09;;;-145.95;56.06
37648;BME280;23490;53.656;10.076;2022-07-06T11:09:01;55817.34;;;-145.95;56.10
37648;BME280;23490;53.656;10.076;2022-07-06T11:16:34;55858.16;;;-145.95;52.49
37648;BME280;23490;53.656;10.076;2022-07-06T11:19:06;55882.63;;;-145.95;49.24
37648;BME280;23490;53.656;10.076;2022-07-06T11:24:03;55829.59;;;-145.95;48.56
37648;BME280;23490;53.656;10.076;2022-07-06T11:26:30;55845.91;;;-145.95;46.15
37648;BME280;23490;53.656;10.076;2022-07-06T11:29:03;55898.94;;;-145.95;47.29
37648;BME280;23490;53.656;10.076;2022-07-06T11:31:29;55845.91;;;-145.95;48.52
37648;BME280;23490;53.656;10.076;2022-07-06T11:33:55;55882.63;;;-145.95;48.27
37648;BME280;23490;53.656;10.076;2022-07-06T11:36:23;55866.31;;;-145.95;47.87
37648;BME280;23490;53.656;10.076;2022-07-06T11:38:50;55898.94;;;-145.95;47.76
37648;BME280;23490;53.656;10.076;2022-07-06T11:41:16;55845.91;;;-145.95;47.02
37648;BME280;23490;53.656;10.076;2022-07-06T11:43:46;55845.91;;;-145.95;48.71
37648;BME280;23490;53.656;10.076;2022-07-06T11:46:29;55809.19;;;-145.95;51.74
37648;BME280;23490;53.656;10.076;2022-07-06T11:49:08;55815.31;;;-145.95;53.82
37648;BME280;23490;53.656;10.076;2022-07-06T11:51:39;55811.25;;;-145.95;54.92
37648;BME280;23490;53.656;10.076;2022-07-06T11:54:12;55817.34;;;-145.95;54.16
37648;BME280;23490;53.656;10.076;2022-07-06T11:56:46;55825.53;;;-145.95;54.00
37648;BME280;23490;53.656;10.076;2022-07-06T11:59:11;55878.53;;;-145.95;53.41
37648;BME280;23490;53.656;10.076;2022-07-06T12:01:37;55872.41;;;-145.95;52.28
37648;BME280;23490;53.656;10.076;2022-07-06T12:04:07;55833.66;;;-145.95;53.74
37648;BME280;23490;53.656;10.076;2022-07-06T12:06:35;55827.56;;;-145.95;53.03
37648;BME280;23490;53.656;10.076;2022-07-06T12:09:01;55829.59;;;-145.95;52.82
37648;BME280;23490;53.656;10.076;2022-07-06T12:11:35;55845.91;;;-145.95;51.92
37648;BME280;23490;53.656;10.076;2022-07-06T12:14:12;55862.22;;;-145.95;52.61
37648;BME280;23490;53.656;10.076;2022-07-06T12:16:38;55792.88;;;-145.95;53.46
37648;BME280;23490;53.656;10.076;2022-07-06T12:19:05;55845.91;;;-145.95;52.37
37648;BME280;23490;53.656;10.076;2022-07-06T12:21:31;55829.59;;;-145.95;49.41
37648;BME280;23490;53.656;10.076;2022-07-06T12:23:58;55854.06;;;-145.95;48.89
37648;BME280;23490;53.656;10.076;2022-07-06T12:26:25;55821.44;;;-145.95;48.78
37648;BME280;23490;53.656;10.076;2022-07-06T12:29:08;55829.59;;;-145.95;51.24
37648;BME280;23490;53.656;10.076;2022-07-06T12:34:15;55862.22;;;-145.95;44.88
37648;BME280;23490;53.656;10.076;2022-07-06T12:36:46;55905.03;;;-145.95;46.12
37648;BME280;23490;53.656;10.076;2022-07-06T12:39:14;55845.91;;;-145.95;45.64
37648;BME280;23490;53.656;10.076;2022-07-06T12:41:45;55878.53;;;-145.95;45.43
37648;BME280;23490;53.656;10.076;2022-07-06T12:44:11;55813.28;;;-145.95;46.03
37648;BME280;23490;53.656;10.076;2022-07-06T12:46:39;55862.22;;;-145.95;43.81
37648;BME280;23490;53.656;10.076;2022-07-06T12:49:14;55884.66;;;-145.95;44.22